Time;durP1;ratioP1;P1;durP2;ratioP2;P2;SDS_P1;SDS_P2;PMS_P1;PMS_P2;Temp;Humidity;BMP_temperature;BMP_pressure;BME280_temperature;BME280_humidity;BME280_pressure;Samples;Min_cycle;Max_cycle;Signal;HPM_P1;HPM_P2
2022/07/23 00:01:44;;;;;;;;;;;;;;;24.95;53.60;99517.06;5054697;28;19970;-68
2022/07/23 00:04:12;;;;;;;;;;;;;;;24.96;53.45;99523.94;5055042;28;20290;-68
2022/07/23 00:06:42;;;;;;;;;;;;;;;24.97;53.68;99517.81;5053695;28;19928;-68
2022/07/23 00:09:11;;;;;;;;;;;;;;;25.03;53.76;99529.63;5054997;28;20015;-68
2022/07/23 00:11:39;;;;;;;;;;;;;;;24.98;53.43;99532.53;5054574;28;19979;-68
2022/07/23 00:14:08;;;;;;;;;;;;;;;24.94;53.59;99525.81;5054491;28;19925;-68
2022/07/23 00:16:36;;;;;;;;;;;;;;;24.87;53.42;99518.47;5054572;28;19925;-68
2022/07/23 00:19:05;;;;;;;;;;;;;;;24.81;53.58;99530.09;5055357;28;20265;-68
2022/07/23 00:21:33;;;;;;;;;;;;;;;24.82;53.83;99526.56;5054443;28;19932;-68
2022/07/23 00:24:03;;;;;;;;;;;;;;;24.87;54.28;99528.91;5054419;28;19929;-68
2022/07/23 00:26:32;;;;;;;;;;;;;;;24.86;54.29;99533.28;5054627;28;19931;-68
2022/07/23 00:29:00;;;;;;;;;;;;;;;24.83;54.59;99532.66;5054666;28;19925;-68
2022/07/23 00:31:30;;;;;;;;;;;;;;;24.83;54.58;99533.50;5054835;28;19929;-68
2022/07/23 00:34:00;;;;;;;;;;;;;;;24.77;54.79;99536.47;5054221;28;19941;-68
2022/07/23 00:36:31;;;;;;;;;;;;;;;24.77;54.49;99539.06;5069728;28;19975;-68
2022/07/23 00:38:59;;;;;;;;;;;;;;;24.76;54.42;99536.53;5054503;28;19928;-68
2022/07/23 00:41:29;;;;;;;;;;;;;;;24.67;54.48;99537.91;5054155;28;19932;-68
2022/07/23 00:44:13;;;;;;;;;;;;;;;24.65;54.38;99537.19;5054062;28;19925;-68
2022/07/23 00:46:45;;;;;;;;;;;;;;;24.64;54.30;99532.91;5054357;28;19948;-68
2022/07/23 00:49:14;;;;;;;;;;;;;;;24.57;54.38;99528.97;5053223;28;19956;-68
2022/07/23 00:51:42;;;;;;;;;;;;;;;24.54;54.55;99524.78;5054307;28;19929;-68
2022/07/23 00:54:11;;;;;;;;;;;;;;;24.57;54.54;99523.78;5053746;28;20416;-68
2022/07/23 00:56:42;;;;;;;;;;;;;;;24.57;54.79;99521.16;5053146;28;19925;-68
2022/07/23 00:59:10;;;;;;;;;;;;;;;24.52;54.91;99510.16;5054230;28;19956;-68
2022/07/23 01:01:39;;;;;;;;;;;;;;;24.41;55.14;99515.16;5053909;28;20374;-68
2022/07/23 01:04:08;;;;;;;;;;;;;;;24.38;55.37;99504.91;5053834;28;19929;-68
2022/07/23 01:06:37;;;;;;;;;;;;;;;24.33;55.58;99514.78;5052736;28;19978;-68
2022/07/23 01:09:07;;;;;;;;;;;;;;;24.33;55.67;99507.78;5053809;28;19932;-68
2022/07/23 01:11:36;;;;;;;;;;;;;;;24.35;55.66;99505.09;5054115;28;20003;-68
2022/07/23 01:14:12;;;;;;;;;;;;;;;24.30;56.25;99507.16;5054029;28;19925;-68
2022/07/23 01:16:41;;;;;;;;;;;;;;;24.24;56.00;99507.50;5052979;28;19925;-68
2022/07/23 01:19:10;;;;;;;;;;;;;;;24.22;56.22;99506.75;5054053;28;19960;-68
2022/07/23 01:21:41;;;;;;;;;;;;;;;24.25;56.12;99503.97;5053707;28;19932;-68
2022/07/23 01:24:12;;;;;;;;;;;;;;;24.23;56.37;99498.84;5053673;28;20015;-68
2022/07/23 01:26:49;;;;;;;;;;;;;;;24.20;56.42;99495.56;5053677;28;19925;-68
2022/07/23 01:29:19;;;;;;;;;;;;;;;24.18;56.50;99498.28;5053847;28;19929;-68
2022/07/23 01:31:48;;;;;;;;;;;;;;;24.18;56.50;99502.66;5052448;28;19925;-68
2022/07/23 01:34:17;;;;;;;;;;;;;;;24.20;56.24;99495.56;5053795;28;20260;-68
2022/07/23 01:36:46;;;;;;;;;;;;;;;24.18;56.28;99497.44;5053578;28;19978;-68
2022/07/23 01:39:18;;;;;;;;;;;;;;;24.18;55.85;99498.28;5052406;28;20401;-68
2022/07/23 01:41:47;;;;;;;;;;;;;;;24.17;56.19;99500.97;5052376;28;19952;-68
2022/07/23 01:44:20;;;;;;;;;;;;;;;24.15;56.30;99505.44;5053793;28;20375;-68
2022/07/23 01:46:49;;;;;;;;;;;;;;;24.11;56.02;99506.56;5053346;28;19929;-69
2022/07/23 01:49:19;;;;;;;;;;;;;;;24.06;56.45;99503.34;5052659;28;19939;-68
2022/07/23 01:52:02;;;;;;;;;;;;;;;24.09;56.20;99500.59;5054011;28;20061;-68
2022/07/23 01:54:39;;;;;;;;;;;;;;;24.14;56.38;99495.94;5053532;28;19925;-68
2022/07/23 01:57:09;;;;;;;;;;;;;;;24.11;56.68;99496.13;5053403;28;19925;-68
2022/07/23 01:59:39;;;;;;;;;;;;;;;24.08;56.74;99496.28;5053349;28;20019;-68
2022/07/23 02:02:09;;;;;;;;;;;;;;;24.10;56.72;99495.28;5053367;28;19925;-68
2022/07/23 02:04:38;;;;;;;;;;;;;;;24.08;56.57;99496.28;5052356;28;20030;-68
2022/07/23 02:07:07;;;;;;;;;;;;;;;24.07;56.71;99498.06;5053291;28;19925;-68
2022/07/23 02:09:35;;;;;;;;;;;;;;;24.08;56.83;99496.28;5056500;28;19964;-68
2022/07/23 02:12:06;;;;;;;;;;;;;;;24.06;56.83;99496.34;5056058;28;19929;-68
2022/07/23 02:14:34;;;;;;;;;;;;;;;24.00;57.17;99500.16;5072313;28;19924;-68
2022/07/23 02:17:06;;;;;;;;;;;;;;;23.96;57.23;99493.44;5055680;28;19932;-68
2022/07/23 02:19:36;;;;;;;;;;;;;;;23.96;57.09;99500.44;5057100;28;19929;-68
2022/07/23 02:22:04;;;;;;;;;;;;;;;23.96;56.95;99498.66;5057030;28;19925;-68
2022/07/23 02:24:33;;;;;;;;;;;;;;;23.93;56.98;99501.44;5055472;28;19928;-68
2022/07/23 02:27:02;;;;;;;;;;;;;;;23.90;56.80;99501.63;5055537;28;20363;-68
2022/07/23 02:29:32;;;;;;;;;;;;;;;23.89;56.90;99502.56;5055634;28;19925;-68
2022/07/23 02:32:00;;;;;;;;;;;;;;;23.90;56.84;99499.00;5072411;28;19925;-68
2022/07/23 02:34:29;;;;;;;;;;;;;;;23.93;57.16;99503.19;5072331;28;19948;-68
2022/07/23 02:36:57;;;;;;;;;;;;;;;23.95;57.32;99506.56;5056800;28;19925;-68
2022/07/23 02:39:28;;;;;;;;;;;;;;;23.95;57.40;99506.56;5055949;28;19925;-68
2022/07/23 02:41:57;;;;;;;;;;;;;;;23.83;57.81;99513.31;5056409;28;19928;-68
2022/07/23 02:44:27;;;;;;;;;;;;;;;23.71;58.28;99514.03;5056908;28;20282;-68
2022/07/23 02:46:58;;;;;;;;;;;;;;;23.58;58.74;99513.06;5056552;28;19994;-68
2022/07/23 02:49:27;;;;;;;;;;;;;;;23.42;59.39;99516.59;5055041;28;20019;-68
2022/07/23 02:51:56;;;;;;;;;;;;;;;23.31;59.87;99509.34;5055038;28;19925;-68
2022/07/23 02:54:25;;;;;;;;;;;;;;;23.20;59.80;99503.91;5056229;28;20375;-68
2022/07/23 02:56:53;;;;;;;;;;;;;;;23.10;60.39;99510.53;5054859;28;19968;-68
2022/07/23 02:59:22;;;;;;;;;;;;;;;23.00;60.81;99504.13;5056346;28;19994;-68
2022/07/23 03:01:50;;;;;;;;;;;;;;;22.92;60.95;99501.09;5054804;28;19924;-68
2022/07/23 03:04:21;;;;;;;;;;;;;;;22.92;61.08;99496.72;5055951;28;19925;-68
2022/07/23 03:06:50;;;;;;;;;;;;;;;23.05;60.78;99483.91;5054733;28;19979;-68
2022/07/23 03:09:19;;;;;;;;;;;;;;;23.15;60.65;99475.50;5055742;28;19925;-68
2022/07/23 03:11:48;;;;;;;;;;;;;;;23.25;60.27;99478.44;5054845;28;19975;-68
2022/07/23 03:14:16;;;;;;;;;;;;;;;23.28;59.68;99481.69;5056340;28;19928;-68
2022/07/23 03:16:45;;;;;;;;;;;;;;;23.28;59.63;99486.06;5054603;28;19924;-68
2022/07/23 03:19:13;;;;;;;;;;;;;;;23.32;59.34;99490.19;5054731;28;19929;-68
2022/07/23 03:21:43;;;;;;;;;;;;;;;23.35;59.31;99484.81;5053929;28;19963;-68
2022/07/23 03:24:13;;;;;;;;;;;;;;;23.40;59.08;99481.97;5055586;28;20375;-68
2022/07/23 03:26:42;;;;;;;;;;;;;;;23.45;59.41;99486.00;5054289;28;20375;-68
2022/07/23 03:29:10;;;;;;;;;;;;;;;23.42;59.43;99478.34;5054217;28;19924;-68
2022/07/23 03:31:39;;;;;;;;;;;;;;;23.43;59.33;99474.81;5055432;28;19979;-68
2022/07/23 03:34:08;;;;;;;;;;;;;;;23.44;59.22;99479.13;5055403;28;19924;-68
2022/07/23 03:36:37;;;;;;;;;;;;;;;23.44;59.06;99486.94;5054040;28;19925;-68
2022/07/23 03:39:08;;;;;;;;;;;;;;;23.47;58.98;99489.34;5054093;28;19931;-68
2022/07/23 03:41:40;;;;;;;;;;;;;;;23.52;58.83;99491.69;5054464;28;19932;-68
2022/07/23 03:44:08;;;;;;;;;;;;;;;23.54;58.63;99485.47;5054419;28;19925;-68
2022/07/23 03:46:36;;;;;;;;;;;;;;;23.55;58.67;99486.31;5055049;28;19932;-68
2022/07/23 03:49:05;;;;;;;;;;;;;;;23.54;58.79;99487.25;5055308;28;20023;-68
2022/07/23 03:51:35;;;;;;;;;;;;;;;23.56;58.85;99488.84;5053875;28;19932;-68
2022/07/23 03:54:04;;;;;;;;;;;;;;;23.59;58.97;99487.81;5054872;28;20449;-68
2022/07/23 03:56:34;;;;;;;;;;;;;;;23.63;59.02;99495.41;5053788;28;19925;-68
2022/07/23 03:59:02;;;;;;;;;;;;;;;23.67;59.37;99502.09;5070283;28;19929;-68
2022/07/23 04:01:32;;;;;;;;;;;;;;;23.68;59.25;99490.72;5053788;28;19924;-68
2022/07/23 04:04:01;;;;;;;;;;;;;;;23.76;59.08;99492.91;5054137;28;20019;-68
2022/07/23 04:06:30;;;;;;;;;;;;;;;23.83;59.19;99502.91;5054804;28;20011;-68
2022/07/23 04:08:59;;;;;;;;;;;;;;;23.89;58.93;99502.56;5053433;28;19931;-68
2022/07/23 04:11:30;;;;;;;;;;;;;;;23.92;58.94;99501.53;5054684;28;19925;-68
2022/07/23 04:14:00;;;;;;;;;;;;;;;23.94;58.80;99516.19;5053417;28;20363;-68
2022/07/23 04:16:30;;;;;;;;;;;;;;;23.93;58.79;99509.25;5054006;28;20011;-68
2022/07/23 04:18:59;;;;;;;;;;;;;;;23.97;58.99;99510.75;5053587;28;19932;-68
2022/07/23 04:21:34;;;;;;;;;;;;;;;23.99;58.88;99511.50;5054511;28;19982;-68
2022/07/23 04:24:02;;;;;;;;;;;;;;;24.04;58.95;99499.97;5053495;28;19935;-68
2022/07/23 04:26:31;;;;;;;;;;;;;;;24.09;58.74;99492.75;5053520;28;20397;-68
2022/07/23 04:29:01;;;;;;;;;;;;;;;24.13;58.72;99499.47;5054012;28;20386;-68
2022/07/23 04:31:30;;;;;;;;;;;;;;;24.19;59.20;99504.31;5054274;28;19925;-68
2022/07/23 04:34:05;;;;;;;;;;;;;;;24.26;58.89;99500.44;5036834;28;20349;-68
2022/07/23 04:36:34;;;;;;;;;;;;;;;24.32;58.67;99505.28;5053046;28;19925;-68
2022/07/23 04:39:02;;;;;;;;;;;;;;;24.40;58.45;99503.06;5053290;28;19951;-68
2022/07/23 04:41:32;;;;;;;;;;;;;;;24.46;57.95;99513.13;5036702;28;19971;-68
2022/07/23 04:44:02;;;;;;;;;;;;;;;24.53;57.11;99509.19;5052969;28;19932;-68
2022/07/23 04:46:31;;;;;;;;;;;;;;;24.63;56.89;99515.56;5069630;28;19924;-68
2022/07/23 04:48:59;;;;;;;;;;;;;;;24.77;56.58;99522.56;5052764;28;19972;-68
2022/07/23 04:51:28;;;;;;;;;;;;;;;24.88;56.31;99514.94;5053205;28;19931;-68
2022/07/23 04:53:57;;;;;;;;;;;;;;;24.96;55.91;99507.44;5052955;28;19947;-68
2022/07/23 04:56:25;;;;;;;;;;;;;;;24.99;55.55;99509.88;5053927;28;19925;-68
2022/07/23 04:58:54;;;;;;;;;;;;;;;25.03;55.50;99499.13;5053834;28;19932;-68
2022/07/23 05:01:24;;;;;;;;;;;;;;;25.06;55.63;99493.72;5052735;28;19925;-68
2022/07/23 05:03:53;;;;;;;;;;;;;;;25.17;55.44;99485.22;5054155;28;20374;-68
2022/07/23 05:06:21;;;;;;;;;;;;;;;25.24;55.19;99482.09;5052737;28;19925;-68
2022/07/23 05:08:50;;;;;;;;;;;;;;;25.30;54.89;99484.31;5052648;28;19925;-68
2022/07/23 05:11:19;;;;;;;;;;;;;;;25.34;54.92;99482.34;5053701;28;19932;-68
2022/07/23 05:13:54;;;;;;;;;;;;;;;25.44;54.87;99487.81;5053496;28;20271;-68
2022/07/23 05:16:25;;;;;;;;;;;;;;;25.54;54.72;99496.78;5054060;28;19936;-68
2022/07/23 05:18:59;;;;;;;;;;;;;;;25.63;54.56;99499.63;5053129;28;19924;-68
2022/07/23 05:21:28;;;;;;;;;;;;;;;25.66;54.24;99495.97;5053611;28;19931;-68
2022/07/23 05:23:56;;;;;;;;;;;;;;;25.63;54.35;99480.47;5053091;28;19925;-68
2022/07/23 05:26:25;;;;;;;;;;;;;;;25.66;54.42;99482.91;5052490;28;19924;-68
2022/07/23 05:28:55;;;;;;;;;;;;;;;25.74;54.27;99496.31;5052471;28;19935;-67
2022/07/23 05:31:25;;;;;;;;;;;;;;;25.82;54.29;99494.03;5052849;28;19928;-68
2022/07/23 05:33:53;;;;;;;;;;;;;;;25.96;54.40;99497.41;5052724;28;20354;-68
2022/07/23 05:36:22;;;;;;;;;;;;;;;26.07;53.87;99504.53;5052393;28;19931;-68
2022/07/23 05:38:56;;;;;;;;;;;;;;;26.15;53.79;99493.59;5052695;28;19924;-68
2022/07/23 05:41:28;;;;;;;;;;;;;;;26.21;53.31;99496.63;5069344;28;20015;-68
2022/07/23 05:43:58;;;;;;;;;;;;;;;26.23;53.63;99493.91;5055658;28;20477;-68
2022/07/23 05:46:28;;;;;;;;;;;;;;;26.26;53.00;99483.25;5057703;28;19925;-68
2022/07/23 05:49:02;;;;;;;;;;;;;;;26.24;53.19;99480.72;5058349;28;19929;-68
2022/07/23 05:51:43;;;;;;;;;;;;;;;26.27;52.91;99475.31;5057233;28;20008;-68
2022/07/23 05:54:16;;;;;;;;;;;;;;;26.34;53.06;99476.56;5057252;28;19924;-68
2022/07/23 05:56:45;;;;;;;;;;;;;;;26.43;52.82;99483.78;5056694;28;20453;-68
2022/07/23 05:59:14;;;;;;;;;;;;;;;26.58;53.06;99474.88;5057235;28;19925;-68
2022/07/23 06:01:44;;;;;;;;;;;;;;;26.80;52.78;99473.38;5057042;28;19932;-68
2022/07/23 06:04:17;;;;;;;;;;;;;;;26.99;52.28;99474.59;5057920;28;19925;-68
2022/07/23 06:06:56;;;;;;;;;;;;;;;27.21;51.70;99473.91;5056310;28;19967;-68
2022/07/23 06:09:25;;;;;;;;;;;;;;;27.39;51.40;99476.97;5056055;28;20019;-68
2022/07/23 06:11:53;;;;;;;;;;;;;;;27.50;50.98;99475.25;5055725;28;19925;-68
2022/07/23 06:14:22;;;;;;;;;;;;;;;27.57;50.30;99479.09;5055694;28;19925;-68
2022/07/23 06:16:56;;;;;;;;;;;;;;;27.69;50.52;99470.31;5058125;28;20381;-68
2022/07/23 06:19:25;;;;;;;;;;;;;;;27.79;50.03;99473.94;5055495;28;19929;-67
2022/07/23 06:21:54;;;;;;;;;;;;;;;27.90;49.83;99468.75;5072207;28;19929;-68
2022/07/23 06:24:22;;;;;;;;;;;;;;;28.05;49.80;99476.44;5055532;28;19929;-68
2022/07/23 06:26:51;;;;;;;;;;;;;;;28.13;49.35;99468.78;5072418;28;19975;-68
2022/07/23 06:29:20;;;;;;;;;;;;;;;28.30;49.20;99476.22;5072302;28;19925;-68
2022/07/23 06:31:48;;;;;;;;;;;;;;;28.39;48.77;99478.97;5056693;28;20378;-67
2022/07/23 06:34:18;;;;;;;;;;;;;;;28.42;48.23;99480.53;5055609;28;20031;-68
2022/07/23 06:36:46;;;;;;;;;;;;;;;28.54;48.12;99474.34;5057031;28;20379;-68
2022/07/23 06:39:15;;;;;;;;;;;;;;;28.64;47.98;99485.00;5055206;28;19979;-68
2022/07/23 06:41:48;;;;;;;;;;;;;;;28.73;47.53;99474.59;5056454;28;20416;-68
2022/07/23 06:44:19;;;;;;;;;;;;;;;28.85;47.59;99473.63;5055499;28;19925;-68
2022/07/23 06:46:49;;;;;;;;;;;;;;;29.00;47.33;99467.16;5056333;28;19925;-68
2022/07/23 06:49:20;;;;;;;;;;;;;;;29.13;47.08;99477.53;5055652;28;19947;-68
2022/07/23 06:51:49;;;;;;;;;;;;;;;29.32;46.61;99471.66;5056420;28;19932;-68
2022/07/23 06:54:18;;;;;;;;;;;;;;;29.51;46.63;99472.69;5055243;28;20271;-68
2022/07/23 06:56:46;;;;;;;;;;;;;;;29.58;46.07;99473.00;5055654;28;19932;-68
2022/07/23 06:59:15;;;;;;;;;;;;;;;29.66;45.93;99474.03;5056011;28;19924;-68
2022/07/23 07:01:43;;;;;;;;;;;;;;;29.79;45.39;99472.09;5056258;28;20442;-68
2022/07/23 07:04:12;;;;;;;;;;;;;;;29.84;45.34;99469.06;5056266;28;19925;-68
2022/07/23 07:06:42;;;;;;;;;;;;;;;29.88;44.87;99467.00;5056227;28;20003;-68
2022/07/23 07:09:10;;;;;;;;;;;;;;;29.98;44.78;99470.53;5056196;28;19964;-68
2022/07/23 07:11:38;;;;;;;;;;;;;;;30.08;44.72;99477.56;5055734;28;19964;-68
2022/07/23 07:14:07;;;;;;;;;;;;;;;30.31;44.43;99483.50;5055658;28;19932;-68
2022/07/23 07:16:35;;;;;;;;;;;;;;;30.35;44.12;99480.50;5056106;28;19975;-68
2022/07/23 07:19:04;;;;;;;;;;;;;;;30.39;43.91;99476.66;5055605;28;19925;-68
2022/07/23 07:21:33;;;;;;;;;;;;;;;30.54;43.57;99465.75;5055606;28;19931;-68
2022/07/23 07:24:04;;;;;;;;;;;;;;;30.65;43.44;99455.94;5056173;28;20270;-68
2022/07/23 07:26:32;;;;;;;;;;;;;;;30.79;43.30;99462.66;5055516;28;20012;-68
2022/07/23 07:29:01;;;;;;;;;;;;;;;31.02;43.50;99464.16;5055388;28;19935;-68
2022/07/23 07:31:30;;;;;;;;;;;;;;;31.05;43.87;99464.69;5055623;28;20325;-68
2022/07/23 07:33:59;;;;;;;;;;;;;;;31.15;43.61;99454.16;5055387;28;19924;-68
2022/07/23 07:36:27;;;;;;;;;;;;;;;31.28;43.07;99454.75;5055283;28;19974;-68
2022/07/23 07:38:56;;;;;;;;;;;;;;;31.35;42.39;99453.22;5056137;28;19974;-68
2022/07/23 07:41:26;;;;;;;;;;;;;;;31.32;42.10;99456.13;5055267;28;19975;-68
2022/07/23 07:43:54;;;;;;;;;;;;;;;31.27;41.69;99452.22;5054361;28;20363;-68
2022/07/23 07:46:23;;;;;;;;;;;;;;;31.24;41.40;99453.38;5055439;28;19925;-68
2022/07/23 07:48:52;;;;;;;;;;;;;;;31.26;40.96;99456.69;5055095;28;20441;-68
2022/07/23 07:51:26;;;;;;;;;;;;;;;31.29;41.54;99453.75;5055261;28;20374;-67
2022/07/23 07:53:55;;;;;;;;;;;;;;;31.41;41.36;99460.56;5054802;28;20019;-68
2022/07/23 07:56:23;;;;;;;;;;;;;;;31.50;41.44;99456.31;5055219;28;20020;-68
2022/07/23 07:58:53;;;;;;;;;;;;;;;31.58;41.04;99457.28;5055583;28;20330;-68
2022/07/23 08:01:21;;;;;;;;;;;;;;;31.67;40.93;99455.63;5054747;28;19932;-68
2022/07/23 08:03:50;;;;;;;;;;;;;;;31.79;40.46;99455.31;5055079;28;19971;-68
2022/07/23 08:06:18;;;;;;;;;;;;;;;31.96;40.25;99455.59;5054893;28;19990;-69
2022/07/23 08:08:48;;;;;;;;;;;;;;;32.03;39.85;99448.78;5055032;28;19964;-69
2022/07/23 08:11:17;;;;;;;;;;;;;;;32.17;39.56;99448.31;5054882;28;19963;-69
2022/07/23 08:13:45;;;;;;;;;;;;;;;32.36;38.91;99442.97;5055016;28;20264;-69
2022/07/23 08:16:15;;;;;;;;;;;;;;;32.47;38.75;99445.44;5054479;28;19925;-68
2022/07/23 08:18:44;;;;;;;;;;;;;;;32.53;38.42;99452.81;5054548;28;19932;-67
2022/07/23 08:21:13;;;;;;;;;;;;;;;32.55;38.01;99453.50;5054817;28;19931;-68
2022/07/23 08:23:41;;;;;;;;;;;;;;;32.49;37.37;99455.88;5054362;28;19925;-68
2022/07/23 08:26:10;;;;;;;;;;;;;;;32.47;37.35;99460.47;5054453;28;19960;-68
2022/07/23 08:28:38;;;;;;;;;;;;;;;32.54;37.05;99462.41;5054641;28;19924;-67
2022/07/23 08:31:07;;;;;;;;;;;;;;;32.60;37.29;99459.19;5054226;28;19929;-67
2022/07/23 08:33:37;;;;;;;;;;;;;;;32.62;36.54;99453.75;5054537;28;20418;-67
2022/07/23 08:36:05;;;;;;;;;;;;;;;32.52;36.61;99448.50;5054502;28;19978;-67
2022/07/23 08:38:35;;;;;;;;;;;;;;;32.51;37.12;99446.84;5053049;28;19971;-67
2022/07/23 08:41:04;;;;;;;;;;;;;;;32.46;37.18;99446.44;5054133;28;20450;-66
2022/07/23 08:43:35;;;;;;;;;;;;;;;32.36;37.48;99442.97;5054410;28;19983;-67
2022/07/23 08:46:04;;;;;;;;;;;;;;;32.35;37.45;99446.59;5054446;28;19970;-67
2022/07/23 08:48:33;;;;;;;;;;;;;;;32.42;36.93;99448.50;5054089;28;20370;-69
2022/07/23 08:51:04;;;;;;;;;;;;;;;32.56;36.65;99441.97;5054131;28;19928;-69
2022/07/23 08:53:35;;;;;;;;;;;;;;;32.71;36.56;99445.75;5054104;28;19925;-68
2022/07/23 08:56:04;;;;;;;;;;;;;;;32.87;36.34;99447.78;5053938;28;19925;-67
2022/07/23 08:58:35;;;;;;;;;;;;;;;32.97;36.15;99444.09;5054036;28;19925;-67
2022/07/23 09:01:04;;;;;;;;;;;;;;;33.12;35.48;99440.94;5054226;28;19971;-69
2022/07/23 09:03:34;;;;;;;;;;;;;;;33.05;35.75;99441.56;5054096;28;19932;-68
2022/07/23 09:06:04;;;;;;;;;;;;;;;33.12;35.36;99446.25;5053888;28;19924;-67
2022/07/23 09:08:37;;;;;;;;;;;;;;;33.12;34.59;99436.50;5054194;28;19979;-68
2022/07/23 09:11:08;;;;;;;;;;;;;;;33.21;34.42;99440.88;5054253;28;19967;-68
2022/07/23 09:13:38;;;;;;;;;;;;;;;33.33;34.07;99436.22;5053803;28;19925;-68
2022/07/23 09:16:10;;;;;;;;;;;;;;;33.49;34.00;99439.00;5054039;28;20028;-67
2022/07/23 09:18:40;;;;;;;;;;;;;;;33.71;33.57;99438.56;5055441;28;19931;-68
2022/07/23 09:21:11;;;;;;;;;;;;;;;33.96;33.50;99434.25;5058227;28;19925;-67
2022/07/23 09:23:41;;;;;;;;;;;;;;;34.10;33.40;99429.25;5057897;28;19925;-67
2022/07/23 09:26:21;;;;;;;;;;;;;;;34.39;33.45;99435.03;5058091;28;19928;-67
2022/07/23 09:28:54;;;;;;;;;;;;;;;34.56;31.96;99429.84;5057739;28;19925;-67
2022/07/23 09:31:23;;;;;;;;;;;;;;;34.64;31.97;99430.72;5058099;28;19987;-67
2022/07/23 09:33:52;;;;;;;;;;;;;;;34.74;31.81;99430.59;5057923;28;19987;-67
2022/07/23 09:36:31;;;;;;;;;;;;;;;34.71;31.72;99433.56;5057690;28;20019;-67
2022/07/23 09:39:01;;;;;;;;;;;;;;;34.73;31.39;99424.44;5057588;28;19968;-67
2022/07/23 09:41:35;;;;;;;;;;;;;;;34.79;30.31;99426.47;5057890;28;19925;-66
2022/07/23 09:44:11;;;;;;;;;;;;;;;34.81;30.96;99428.94;5057911;28;20027;-70
2022/07/23 09:46:43;;;;;;;;;;;;;;;34.91;31.81;99429.66;5057448;28;19939;-68
2022/07/23 09:49:13;;;;;;;;;;;;;;;35.01;31.99;99425.00;5057693;28;20367;-67
2022/07/23 09:51:47;;;;;;;;;;;;;;;35.17;31.70;99417.13;5057292;28;20290;-68
2022/07/23 09:54:25;;;;;;;;;;;;;;;35.25;31.26;99419.78;5057205;28;19994;-69
2022/07/23 09:56:54;;;;;;;;;;;;;;;35.22;31.20;99417.47;5057615;28;19971;-69
2022/07/23 09:59:24;;;;;;;;;;;;;;;35.20;31.33;99414.16;5057164;28;19978;-69
2022/07/23 10:01:54;;;;;;;;;;;;;;;35.28;31.01;99416.78;5057568;28;20098;-69
2022/07/23 10:04:22;;;;;;;;;;;;;;;35.21;31.29;99409.66;5057424;28;19925;-70
2022/07/23 10:07:04;;;;;;;;;;;;;;;35.22;31.26;99401.53;5057028;28;19929;-71
2022/07/23 10:09:46;;;;;;;;;;;;;;;35.37;30.94;99393.75;5058125;28;19932;-70
2022/07/23 10:15:09;;;;;;;;;;;;;;;35.64;31.14;99390.75;5055890;28;19925;-69
2022/07/23 10:17:37;;;;;;;;;;;;;;;35.80;30.87;99384.63;5057168;28;19924;-71
2022/07/23 10:20:06;;;;;;;;;;;;;;;35.75;29.97;99392.25;5055532;28;19925;-69
2022/07/23 10:22:37;;;;;;;;;;;;;;;35.60;29.77;99390.28;5056854;28;19975;-68
2022/07/23 10:25:13;;;;;;;;;;;;;;;35.50;30.40;99386.94;5057085;28;19924;-68
2022/07/23 10:27:53;;;;;;;;;;;;;;;35.67;30.31;99383.31;5057072;28;19933;-69
2022/07/23 10:30:27;;;;;;;;;;;;;;;35.74;29.77;99382.63;5056324;28;19924;-68
2022/07/23 10:33:11;;;;;;;;;;;;;;;35.65;29.53;99387.13;5056785;28;20259;-70
2022/07/23 10:35:44;;;;;;;;;;;;;;;35.67;29.71;99380.66;5056892;28;20374;-68
2022/07/23 10:38:17;;;;;;;;;;;;;;;35.70;29.69;99378.66;5056399;28;19925;-69
2022/07/23 10:40:56;;;;;;;;;;;;;;;35.66;29.59;99373.66;5056817;28;20343;-70
2022/07/23 10:43:27;;;;;;;;;;;;;;;35.72;29.31;99371.34;5055692;28;19925;-68
2022/07/23 10:45:55;;;;;;;;;;;;;;;35.64;29.46;99369.50;5056674;28;19931;-66
2022/07/23 10:48:26;;;;;;;;;;;;;;;35.63;29.95;99368.69;5056572;28;19978;-70
2022/07/23 10:51:06;;;;;;;;;;;;;;;35.68;29.87;99361.03;5056572;28;19929;-68
2022/07/23 10:53:49;;;;;;;;;;;;;;;35.78;29.68;99354.72;5056027;28;19928;-70
2022/07/23 10:56:18;;;;;;;;;;;;;;;35.81;29.43;99360.53;5055931;28;19925;-70
2022/07/23 10:58:49;;;;;;;;;;;;;;;35.89;29.75;99351.69;5056320;28;19925;-71
2022/07/23 11:01:28;;;;;;;;;;;;;;;36.05;29.39;99357.00;5056146;28;19931;-69
2022/07/23 11:03:57;;;;;;;;;;;;;;;36.12;28.89;99352.66;5056369;28;20359;-67
2022/07/23 11:06:48;;;;;;;;;;;;;;;36.15;29.27;99342.50;5055953;28;19925;-66
2022/07/23 11:09:27;;;;;;;;;;;;;;;36.09;29.30;99337.06;5055755;28;19924;-67
2022/07/23 11:12:10;;;;;;;;;;;;;;;36.17;29.86;99339.66;5056155;28;19929;-69
2022/07/23 11:14:57;;;;;;;;;;;;;;;36.19;29.75;99337.66;5055847;28;20363;-69
2022/07/23 11:17:27;;;;;;;;;;;;;;;36.23;29.63;99328.38;5055833;28;20424;-69
2022/07/23 11:20:07;;;;;;;;;;;;;;;36.23;29.66;99331.03;5056125;28;19925;-68
2022/07/23 11:22:36;;;;;;;;;;;;;;;36.24;29.13;99335.31;5055697;28;19956;-71
2022/07/23 11:25:05;;;;;;;;;;;;;;;36.25;29.19;99326.34;5055586;28;19978;-70
2022/07/23 11:27:39;;;;;;;;;;;;;;;36.17;29.26;99326.38;5055562;28;19925;-70
2022/07/23 11:30:08;;;;;;;;;;;;;;;36.19;29.47;99316.41;5054313;28;19931;-71
2022/07/23 11:32:39;;;;;;;;;;;;;;;36.26;29.51;99328.81;5055664;28;19978;-69
2022/07/23 11:35:18;;;;;;;;;;;;;;;36.25;29.51;99321.88;5055735;28;19948;-70
2022/07/23 11:37:47;;;;;;;;;;;;;;;36.28;29.43;99318.03;5055679;28;20466;-69
2022/07/23 11:40:17;;;;;;;;;;;;;;;36.41;29.57;99315.63;5055053;28;19970;-71
2022/07/23 11:42:56;;;;;;;;;;;;;;;36.43;28.99;99316.28;5055133;28;19991;-69
2022/07/23 11:45:26;;;;;;;;;;;;;;;36.45;29.18;99305.47;5055280;28;20390;-71
2022/07/23 11:47:56;;;;;;;;;;;;;;;36.62;29.25;99313.19;5055478;28;20390;-69
2022/07/23 11:50:25;;;;;;;;;;;;;;;36.68;29.15;99312.50;5055067;28;19978;-69
2022/07/23 11:52:55;;;;;;;;;;;;;;;36.70;28.57;99305.19;5054700;28;19925;-70
2022/07/23 11:55:24;;;;;;;;;;;;;;;36.59;28.74;99297.63;5055597;28;20287;-69
2022/07/23 11:57:53;;;;;;;;;;;;;;;36.58;29.05;99290.63;5054978;28;19974;-69
2022/07/23 12:00:22;;;;;;;;;;;;;;;36.69;29.61;99287.53;5055152;28;19929;-69
2022/07/23 12:02:53;;;;;;;;;;;;;;;36.81;29.31;99280.81;5054927;28;19929;-69
2022/07/23 12:05:24;;;;;;;;;;;;;;;36.92;29.17;99283.09;5054859;28;19925;-70
2022/07/23 12:07:54;;;;;;;;;;;;;;;37.01;29.75;99288.34;5053856;28;20016;-68
2022/07/23 12:10:23;;;;;;;;;;;;;;;37.12;29.52;99282.59;5054759;28;19979;-68
2022/07/23 12:12:52;;;;;;;;;;;;;;;37.34;29.50;99287.03;5054501;28;19925;-71
2022/07/23 12:15:22;;;;;;;;;;;;;;;37.21;28.99;99273.53;5054645;28;19929;-68
2022/07/23 12:17:51;;;;;;;;;;;;;;;37.04;29.13;99285.31;5055182;28;20295;-69
2022/07/23 12:20:22;;;;;;;;;;;;;;;36.93;29.02;99276.75;5054871;28;20294;-68
2022/07/23 12:22:54;;;;;;;;;;;;;;;36.90;29.24;99271.78;5054450;28;19929;-68
2022/07/23 12:25:23;;;;;;;;;;;;;;;36.94;29.59;99265.09;5054592;28;19932;-68
2022/07/23 12:27:59;;;;;;;;;;;;;;;37.03;29.17;99262.34;5054445;28;20393;-68
2022/07/23 12:30:29;;;;;;;;;;;;;;;37.04;29.50;99251.53;5054953;28;19924;-69
2022/07/23 12:33:02;;;;;;;;;;;;;;;37.14;29.52;99253.94;5054609;28;19928;-68
2022/07/23 12:35:32;;;;;;;;;;;;;;;37.17;29.11;99248.28;5054233;28;19960;-68
2022/07/23 12:38:03;;;;;;;;;;;;;;;37.16;29.32;99247.44;5054887;28;19929;-68
2022/07/23 12:40:34;;;;;;;;;;;;;;;37.29;29.19;99239.63;5054799;28;19925;-69
2022/07/23 12:43:04;;;;;;;;;;;;;;;37.38;28.87;99248.41;5054123;28;19928;-70
2022/07/23 12:45:43;;;;;;;;;;;;;;;37.29;28.95;99241.50;5054454;28;20282;-70
2022/07/23 12:48:16;;;;;;;;;;;;;;;37.24;28.90;99241.22;5054073;28;20346;-70
2022/07/23 12:50:53;;;;;;;;;;;;;;;37.09;29.07;99238.53;5054740;28;20282;-68
2022/07/23 12:53:25;;;;;;;;;;;;;;;37.07;29.55;99229.06;5053956;28;19925;-69
2022/07/23 12:55:59;;;;;;;;;;;;;;;37.04;29.51;99237.41;5054239;28;20390;-69
2022/07/23 12:58:48;;;;;;;;;;;;;;;36.77;29.84;99236.94;5053941;28;19925;-68
2022/07/23 13:01:23;;;;;;;;;;;;;;;36.47;29.77;99229.88;5054000;28;20008;-69
2022/07/23 13:03:58;;;;;;;;;;;;;;;36.34;30.09;99232.22;5054210;28;20350;-70
2022/07/23 13:06:27;;;;;;;;;;;;;;;36.25;30.24;99225.31;5054195;28;19924;-70
2022/07/23 13:08:58;;;;;;;;;;;;;;;36.26;30.23;99224.28;5053991;28;19925;-69